Terminal Aerodrome Forecast
Issued by NWS

Home | Current Version | Previous Version | Text Only | Print | Product List | Glossary On
Versions: 1 2 3 4 5 6 7 8 9 10 11 12 13 14 15 16 17 18 19 20 21 22 23 24 25 26 27 28
000
FTUS45 KPIH 172340
TAFSUN
TAF
KSUN 172340Z 1800/1906 14006KT 6SM BR SCT008 SCT015 BKN025
      TEMPO 1804/1808 SCT008 OVC015
     FM180800 VRB04KT P6SM SCT004 BKN015
     FM181900 14008KT P6SM SCT010 OVC100
      AMD LTD TO CLD VIS AND WIND 1806/1814=

USA.gov is the U.S. government's official web portal to all federal, state and local government web resources and services.